Skip to main content.
Our real time weather data display below is updated continuously via our 24/7 live data feed.
 TIME   TEMPERATURE   WINDSPEED   DIRECTION   HUMIDITY   BAROMETER   RAINFALL 
17:25 17.0°C (62.6°F) 9.3 kmh (5.8 mph) W 67% 1014.9hPa (29.97 inHg) 0.0mm (0.00 in.)
16:25 18.0°C (64.4 °F) 13.0 kmh (8.1 mph) WSW 67% 1014.9hPa (29.97 inHg) 0.0mm (0.00 in.)
15:25 18.0°C (64.4 °F) 9.3 kmh (5.8 mph) SW 67% 1014.9hPa (29.97 inHg) 0.0mm (0.00 in.)
14:25 17.0°C (62.6 °F) 11.1 kmh (6.9 mph) WSW 63% 1014.9hPa (29.97 inHg) 0.0mm (0.00 in.)
13:25 19.0°C (66.2 °F) 11.1 kmh (6.9 mph) WSW 48% 1014.9hPa (29.97 inHg) 0.0mm (0.00 in.)
12:25 19.0°C (66.2 °F) 13.0 kmh (8.1 mph) SW 48% 1015.9hPa (30.00 inHg) 0.0mm (0.00 in.)
11:25 19.0°C (66.2 °F) 9.3 kmh (5.8 mph) SW 48% 1015.9hPa (30.00 inHg) 0.0mm (0.00 in.)
10:25 19.0°C (66.2 °F) 5.6 kmh (3.5 mph) SSW 52% 1015.9hPa (30.00 inHg) 0.0mm (0.00 in.)
9:25 17.0°C (62.6 °F) 3.7 kmh (2.3 mph) SSW 67% 1015.9hPa (30.00 inHg) 0.0mm (0.00 in.)
8:25 12.0°C (53.6 °F) 7.4 kmh (4.6 mph) W 76% 1015.9hPa (30.00 inHg) 0.0mm (0.00 in.)
7:25 12.0°C (53.6 °F) 7.4 kmh (4.6 mph) W 71% 1015.9hPa (30.00 inHg) 0.0mm (0.00 in.)
6:25 12.0°C (53.6 °F) 9.3 kmh (5.8 mph) WNW 71% 1015.9hPa (30.00 inHg) 0.0mm (0.00 in.)
5:25 12.0°C (53.6 °F) 7.4 kmh (4.6 mph) WNW 76% 1015.9hPa (30.00 inHg) 0.0mm (0.00 in.)
4:25 11.0°C (51.8 °F) 7.4 kmh (4.6 mph) WNW 87% 1015.9hPa (30.00 inHg) 0.0mm (0.00 in.)
3:25 11.0°C (51.8 °F) 5.6 kmh (3.5 mph) W 81% 1016.9hPa (30.03 inHg) 0.0mm (0.00 in.)
2:25 11.0°C (51.8 °F) 0.0 kmh (0.0 mph) W 81% 1016.9hPa (30.03 inHg) 0.0mm (0.00 in.)
1:25 11.0°C (51.8 °F) 3.7 kmh (2.3 mph) WNW 87% 1016.9hPa (30.03 inHg) 0.0mm (0.00 in.)
0:25 11.0°C (51.8 °F) 5.6 kmh (3.5 mph) WSW 87% 1016.9hPa (30.03 inHg) 0.0mm (0.00 in.)
23:25 11.0°C (51.8 °F) 5.6 kmh (3.5 mph) W 87% 1016.9hPa (30.03 inHg) 0.0mm (0.00 in.)
22:25 12.0°C (53.6 °F) 5.6 kmh (3.5 mph) NW 81% 1016.9hPa (30.03 inHg) 0.0mm (0.00 in.)
21:25 12.0°C (53.6 °F) 5.6 kmh (3.5 mph) WNW 81% 1016.9hPa (30.03 inHg) 0.0mm (0.00 in.)
20:25 13.0°C (55.4 °F) 7.4 kmh (4.6 mph) WNW 76% 1016.9hPa (30.03 inHg) 0.0mm (0.00 in.)
19:25 13.0°C (55.4 °F) 7.4 kmh (4.6 mph) W 76% 1016.9hPa (30.03 inHg) 0.0mm (0.00 in.)
18:25 14.0°C (57.2 °F) 5.6 kmh (3.5 mph) W 71% 1016.9hPa (30.03 inHg) 0.0mm (0.00 in.)